Terminal Aerodrome Forecast
Issued by NWS

Home | Current Version | Previous Version | Text Only | Print | Product List | Glossary On
Versions: 1 2 3 4 5 6 7 8 9 10 11 12 13 14 15
039
FTUS45 KRIW 220532
TAFCPR
TAF
KCPR 220532Z 2206/2306 24011KT P6SM VCSH SCT060 BKN150
     FM221100 25007KT P6SM SCT080
     FM221500 21014G20KT P6SM FEW060
     FM222100 23018G28KT P6SM VCTS SCT080CB BKN120
     FM230200 24011KT P6SM SCT120=

USA.gov is the U.S. government's official web portal to all federal, state and local government web resources and services.